Time;durP1;ratioP1;P1;durP2;ratioP2;P2;SDS_P1;SDS_P2;PMS_P1;PMS_P2;Temp;Humidity;BMP_temperature;BMP_pressure;BME280_temperature;BME280_humidity;BME280_pressure;Samples;Min_cycle;Max_cycle;Signal;HPM_P1;HPM_P2
2024/02/17 00:00:34;;;;;;;;;;;;;;;-0.21;79.81;97195.44;7401633;19;1127;-69
2024/02/17 00:03:06;;;;;;;;;;;;;;;-0.18;80.74;97196.34;7399349;19;1846;-65
2024/02/17 00:05:35;;;;;;;;;;;;;;;-0.12;79.94;97200.72;7401559;19;1088;-67
2024/02/17 00:08:03;;;;;;;;;;;;;;;-0.21;79.89;97196.31;7402341;19;1652;-68
2024/02/17 00:10:32;;;;;;;;;;;;;;;-0.15;79.68;97195.56;7401766;19;1904;-69
2024/02/17 00:13:01;;;;;;;;;;;;;;;-0.15;79.71;97195.56;7400935;19;1127;-65
2024/02/17 00:15:29;;;;;;;;;;;;;;;-0.20;79.87;97202.31;7401312;19;2184;-66
2024/02/17 00:17:58;;;;;;;;;;;;;;;-0.19;80.26;97196.31;7401460;19;1810;-67
2024/02/17 00:20:29;;;;;;;;;;;;;;;-0.15;80.21;97198.13;7401231;19;1810;-72
2024/02/17 00:22:58;;;;;;;;;;;;;;;-0.12;80.10;97195.56;7398673;19;1839;-65
2024/02/17 00:25:26;;;;;;;;;;;;;;;-0.23;79.60;97195.44;7401113;19;1793;-66
2024/02/17 00:27:55;;;;;;;;;;;;;;;-0.30;80.44;97197.03;7400749;19;1052;-65
2024/02/17 00:30:23;;;;;;;;;;;;;;;-0.31;80.25;97195.31;7400760;19;1037;-68
2024/02/17 00:32:52;;;;;;;;;;;;;;;-0.24;80.06;97191.09;7400713;19;1099;-64
2024/02/17 00:35:20;;;;;;;;;;;;;;;-0.21;79.77;97190.31;7400832;19;935;-67
2024/02/17 00:37:52;;;;;;;;;;;;;;;-0.16;79.09;97194.69;7400187;19;1115;-62
2024/02/17 00:40:20;;;;;;;;;;;;;;;-0.14;78.75;97198.16;7400389;19;1967;-63
2024/02/17 00:42:49;;;;;;;;;;;;;;;-0.15;78.73;97198.13;7398429;19;1857;-70
2024/02/17 00:45:17;;;;;;;;;;;;;;;-0.15;78.71;97200.69;7399945;19;1010;-65
2024/02/17 00:47:46;;;;;;;;;;;;;;;-0.19;79.31;97189.47;7400391;19;1923;-69
2024/02/17 00:50:14;;;;;;;;;;;;;;;-0.23;79.25;97194.56;7400294;19;1833;-70
2024/02/17 00:52:42;;;;;;;;;;;;;;;-0.26;79.42;97198.81;7397738;19;1939;-69
2024/02/17 00:55:14;;;;;;;;;;;;;;;-0.30;79.86;97194.44;7400202;19;1866;-71
2024/02/17 00:57:43;;;;;;;;;;;;;;;-0.31;79.85;97191.84;7400284;19;1005;-69
2024/02/17 01:00:12;;;;;;;;;;;;;;;-0.32;79.72;97192.72;7399575;19;1045;-65
2024/02/17 01:02:41;;;;;;;;;;;;;;;-0.33;79.57;97191.81;7398139;19;1863;-65
2024/02/17 01:05:10;;;;;;;;;;;;;;;-0.42;80.02;97189.97;7399806;19;1806;-69
2024/02/17 01:07:39;;;;;;;;;;;;;;;-0.42;79.95;97187.41;7399825;19;1900;-64
2024/02/17 01:10:08;;;;;;;;;;;;;;;-0.41;79.69;97196.00;7399699;19;1902;-69
2024/02/17 01:12:39;;;;;;;;;;;;;;;-0.47;80.19;97194.19;7399593;19;1875;-69
2024/02/17 01:15:09;;;;;;;;;;;;;;;-0.52;80.48;97188.09;7399206;19;1119;-67
2024/02/17 01:17:37;;;;;;;;;;;;;;;-0.49;80.67;97189.88;7399231;19;1020;-70
2024/02/17 01:20:06;;;;;;;;;;;;;;;-0.46;80.92;97179.63;7399335;19;1935;-66
2024/02/17 01:22:34;;;;;;;;;;;;;;;-0.54;80.85;97170.09;7398140;19;1849;-69
2024/02/17 01:25:03;;;;;;;;;;;;;;;-0.59;81.32;97183.72;7398821;19;1052;-68
2024/02/17 01:27:31;;;;;;;;;;;;;;;-0.65;81.30;97176.75;7398799;19;1221;-71
2024/02/17 01:30:02;;;;;;;;;;;;;;;-0.65;81.54;97181.91;7399609;19;1660;-67
2024/02/17 01:32:31;;;;;;;;;;;;;;;-0.68;81.51;97175.00;7399194;19;1017;-68
2024/02/17 01:34:59;;;;;;;;;;;;;;;-0.67;81.75;97176.72;7398688;19;1037;-67
2024/02/17 01:37:28;;;;;;;;;;;;;;;-0.67;81.57;97175.84;7398441;19;1077;-66
2024/02/17 01:39:56;;;;;;;;;;;;;;;-0.70;81.79;97174.09;7396807;19;1789;-67
2024/02/17 01:42:25;;;;;;;;;;;;;;;-0.70;81.81;97173.22;7397718;19;1849;-65
2024/02/17 01:44:53;;;;;;;;;;;;;;;-0.65;80.80;97174.19;7398544;19;1843;-68
2024/02/17 01:47:25;;;;;;;;;;;;;;;-0.68;80.68;97169.00;7398568;19;1039;-66
2024/02/17 01:49:55;;;;;;;;;;;;;;;-0.72;81.05;97162.09;7398026;19;1032;-67
2024/02/17 01:52:25;;;;;;;;;;;;;;;-0.73;81.49;97165.50;7397957;19;1049;-66
2024/02/17 01:54:53;;;;;;;;;;;;;;;-0.80;81.97;97170.53;7398147;19;1854;-62
2024/02/17 01:57:21;;;;;;;;;;;;;;;-0.84;82.30;97163.59;7398088;19;1819;-67
2024/02/17 01:59:52;;;;;;;;;;;;;;;-0.83;82.40;97165.34;7397710;19;1077;-69
2024/02/17 02:02:20;;;;;;;;;;;;;;;-0.82;82.15;97161.03;7396825;19;1841;-69
2024/02/17 02:04:52;;;;;;;;;;;;;;;-0.88;82.10;97159.25;7397062;19;1898;-68
2024/02/17 02:07:20;;;;;;;;;;;;;;;-0.89;81.61;97154.94;7397533;19;1094;-63
2024/02/17 02:09:48;;;;;;;;;;;;;;;-0.93;82.36;97148.88;7398035;19;1810;-64
2024/02/17 02:12:17;;;;;;;;;;;;;;;-0.92;82.26;97155.78;7397891;19;1044;-69
2024/02/17 02:14:46;;;;;;;;;;;;;;;-0.95;82.55;97152.25;7397768;19;1004;-66
2024/02/17 02:17:15;;;;;;;;;;;;;;;-0.93;82.68;97158.31;7397239;19;1123;-66
2024/02/17 02:19:43;;;;;;;;;;;;;;;-0.94;82.55;97149.72;7397161;19;1018;-68
2024/02/17 02:22:15;;;;;;;;;;;;;;;-0.93;82.69;97155.75;7396982;19;1858;-65
2024/02/17 02:24:43;;;;;;;;;;;;;;;-0.91;83.06;97148.91;7396975;19;1205;-68
2024/02/17 02:27:14;;;;;;;;;;;;;;;-0.99;84.21;97153.06;7397410;19;1922;-66
2024/02/17 02:29:47;;;;;;;;;;;;;;;-1.09;84.86;97152.88;7396910;19;1103;-65
2024/02/17 02:32:15;;;;;;;;;;;;;;;-1.18;84.87;97155.28;7396869;19;1139;-66
2024/02/17 02:34:43;;;;;;;;;;;;;;;-1.17;85.18;97152.75;7396787;19;1228;-67
2024/02/17 02:37:12;;;;;;;;;;;;;;;-1.23;85.38;97157.78;7396725;19;990;-65
2024/02/17 02:39:41;;;;;;;;;;;;;;;-1.24;85.54;97156.03;7394861;19;1069;-64
2024/02/17 02:42:09;;;;;;;;;;;;;;;-1.22;85.59;97164.66;7396361;19;2026;-67
2024/02/17 02:44:41;;;;;;;;;;;;;;;-1.13;85.85;97160.50;7396449;19;1841;-61
2024/02/17 02:47:27;;;;;;;;;;;;;;;-1.10;85.48;97152.84;7396574;19;946;-69
2024/02/17 02:49:55;;;;;;;;;;;;;;;-1.06;85.08;97157.19;7396475;19;1096;-66
2024/02/17 02:52:24;;;;;;;;;;;;;;;-1.00;85.60;97161.63;7397231;19;1411;-62
2024/02/17 02:54:53;;;;;;;;;;;;;;;-1.00;85.42;97166.75;7396352;19;1863;-69
2024/02/17 02:57:21;;;;;;;;;;;;;;;-1.05;85.85;97164.94;7396547;19;1864;-69
2024/02/17 02:59:52;;;;;;;;;;;;;;;-1.09;86.96;97162.31;7396449;19;954;-68
2024/02/17 03:02:21;;;;;;;;;;;;;;;-1.06;87.64;97172.63;7395498;19;1862;-62
2024/02/17 03:04:49;;;;;;;;;;;;;;;-1.05;86.89;97164.09;7396476;19;964;-65
2024/02/17 03:07:18;;;;;;;;;;;;;;;-1.03;86.13;97163.28;7396413;19;1031;-68
2024/02/17 03:09:47;;;;;;;;;;;;;;;-1.05;85.96;97162.38;7396221;19;1815;-68
2024/02/17 03:12:16;;;;;;;;;;;;;;;-1.03;85.63;97167.53;7396332;19;981;-68
2024/02/17 03:14:44;;;;;;;;;;;;;;;-1.04;85.36;97164.13;7396117;19;1820;-69
2024/02/17 03:17:16;;;;;;;;;;;;;;;-1.05;85.44;97171.81;7402639;19;1879;-65
2024/02/17 03:19:45;;;;;;;;;;;;;;;-1.06;85.80;97172.63;7403105;19;1110;-67
2024/02/17 03:22:13;;;;;;;;;;;;;;;-1.09;85.88;97173.44;7402547;19;1849;-68
2024/02/17 03:24:42;;;;;;;;;;;;;;;-1.03;85.83;97178.69;7403091;19;1035;-65
2024/02/17 03:27:10;;;;;;;;;;;;;;;-1.03;86.01;97170.97;7403339;19;1899;-66
2024/02/17 03:29:39;;;;;;;;;;;;;;;-1.05;86.51;97176.94;7402839;19;1060;-70
2024/02/17 03:32:08;;;;;;;;;;;;;;;-1.07;86.34;97178.59;7402842;19;1116;-65
2024/02/17 03:34:40;;;;;;;;;;;;;;;-1.07;86.17;97171.78;7403025;19;1039;-69
2024/02/17 03:37:09;;;;;;;;;;;;;;;-1.10;85.67;97166.56;7402563;19;1248;-69
2024/02/17 03:39:37;;;;;;;;;;;;;;;-1.09;85.88;97170.03;7400144;19;1907;-66
2024/02/17 03:42:06;;;;;;;;;;;;;;;-1.07;85.74;97178.59;7402593;19;1844;-64
2024/02/17 03:44:34;;;;;;;;;;;;;;;-1.10;85.72;97173.41;7402744;19;1036;-69
2024/02/17 03:47:03;;;;;;;;;;;;;;;-1.10;85.32;97173.41;7402562;19;1919;-66
2024/02/17 03:49:31;;;;;;;;;;;;;;;-1.09;85.35;97170.88;7402430;19;1870;-66
2024/02/17 03:52:03;;;;;;;;;;;;;;;-1.13;84.90;97169.09;7402124;19;1025;-68
2024/02/17 03:54:31;;;;;;;;;;;;;;;-1.13;84.42;97171.66;7401981;19;1033;-67
2024/02/17 03:57:00;;;;;;;;;;;;;;;-1.13;84.52;97169.09;7402406;19;1055;-66
2024/02/17 03:59:28;;;;;;;;;;;;;;;-1.13;84.58;97169.09;7402302;19;1028;-65
2024/02/17 04:01:59;;;;;;;;;;;;;;;-1.30;84.46;97174.75;7402025;19;1845;-68
2024/02/17 04:04:27;;;;;;;;;;;;;;;-1.32;84.79;97173.84;7402088;19;981;-68
2024/02/17 04:06:56;;;;;;;;;;;;;;;-1.37;86.49;97177.19;7401909;19;1906;-70
2024/02/17 04:09:27;;;;;;;;;;;;;;;-1.31;86.85;97172.16;7401861;19;1914;-65
2024/02/17 04:11:55;;;;;;;;;;;;;;;-1.27;86.71;97176.50;7401418;19;1068;-63
2024/02/17 04:14:24;;;;;;;;;;;;;;;-1.27;86.06;97174.81;7401621;19;937;-64
2024/02/17 04:16:52;;;;;;;;;;;;;;;-1.30;85.65;97182.47;7401781;19;976;-68
2024/02/17 04:19:21;;;;;;;;;;;;;;;-1.32;85.46;97176.44;7401179;19;1053;-65
2024/02/17 04:21:49;;;;;;;;;;;;;;;-1.32;85.68;97183.28;7401494;19;1893;-70
2024/02/17 04:24:18;;;;;;;;;;;;;;;-1.31;86.07;97182.44;7399222;19;1920;-66
2024/02/17 04:26:49;;;;;;;;;;;;;;;-1.29;85.91;97183.34;7400970;19;1959;-68
2024/02/17 04:29:19;;;;;;;;;;;;;;;-1.27;86.20;97181.66;7401238;19;977;-68
2024/02/17 04:31:48;;;;;;;;;;;;;;;-1.27;86.19;97187.66;7400879;19;1069;-69
2024/02/17 04:34:16;;;;;;;;;;;;;;;-1.23;85.36;97180.91;7400797;19;1057;-68
2024/02/17 04:36:45;;;;;;;;;;;;;;;-1.25;84.62;97180.00;7400852;19;1901;-68
2024/02/17 04:39:14;;;;;;;;;;;;;;;-1.28;84.42;97188.50;7398749;19;1051;-71
2024/02/17 04:41:43;;;;;;;;;;;;;;;-1.29;84.25;97191.88;7400936;19;989;-62
2024/02/17 04:44:14;;;;;;;;;;;;;;;-1.31;84.53;97196.16;7398583;19;1849;-67
2024/02/17 04:46:42;;;;;;;;;;;;;;;-1.45;84.77;97198.44;7400256;19;1048;-68
2024/02/17 04:49:11;;;;;;;;;;;;;;;-1.40;85.31;97194.28;7400664;19;960;-64
2024/02/17 04:51:39;;;;;;;;;;;;;;;-1.38;85.11;97202.00;7400470;19;1817;-65
2024/02/17 04:54:08;;;;;;;;;;;;;;;-1.38;84.89;97203.69;7400371;19;1890;-60
2024/02/17 04:56:36;;;;;;;;;;;;;;;-1.37;84.70;97206.28;7400119;19;1036;-68
2024/02/17 04:59:05;;;;;;;;;;;;;;;-1.42;85.03;97197.63;7399874;19;1119;-71
2024/02/17 05:01:36;;;;;;;;;;;;;;;-1.55;85.04;97204.22;7399829;19;1139;-67
2024/02/17 05:04:05;;;;;;;;;;;;;;;-1.52;86.01;97201.72;7398675;19;1845;-64
2024/02/17 05:06:34;;;;;;;;;;;;;;;-1.55;86.36;97207.66;7400137;19;2282;-64
2024/02/17 05:09:02;;;;;;;;;;;;;;;-1.52;86.92;97201.72;7400290;19;1913;-69
2024/02/17 05:11:31;;;;;;;;;;;;;;;-1.48;86.28;97203.50;7399480;19;1005;-68
2024/02/17 05:13:59;;;;;;;;;;;;;;;-1.57;86.49;97214.44;7399360;19;1009;-65
2024/02/17 05:16:28;;;;;;;;;;;;;;;-1.63;87.21;97209.19;7399661;19;1822;-63
2024/02/17 05:18:59;;;;;;;;;;;;;;;-1.61;88.06;97212.66;7399524;19;1791;-68
2024/02/17 05:21:28;;;;;;;;;;;;;;;-1.53;87.57;97211.09;7399544;19;1009;-64
2024/02/17 05:23:56;;;;;;;;;;;;;;;-1.44;87.35;97214.72;7398041;19;1829;-62
2024/02/17 05:26:25;;;;;;;;;;;;;;;-1.37;86.54;97215.69;7399078;19;1111;-71
2024/02/17 05:28:53;;;;;;;;;;;;;;;-1.40;85.95;97219.06;7399221;19;1921;-67
2024/02/17 05:31:29;;;;;;;;;;;;;;;-1.34;86.03;97215.75;7398884;19;1040;-65
2024/02/17 05:34:00;;;;;;;;;;;;;;;-1.32;85.95;97220.06;7398642;19;1124;-68
2024/02/17 05:36:29;;;;;;;;;;;;;;;-1.30;86.31;97226.13;7398640;19;1028;-68
2024/02/17 05:38:58;;;;;;;;;;;;;;;-1.21;86.72;97240.84;7395433;19;1340;-66
2024/02/17 05:41:27;;;;;;;;;;;;;;;-1.13;86.87;97243.56;7398616;19;2106;-70
2024/02/17 05:43:56;;;;;;;;;;;;;;;-1.08;85.47;97235.94;7397866;19;1849;-71
2024/02/17 05:46:24;;;;;;;;;;;;;;;-1.02;85.36;97244.63;7398379;19;1107;-70
2024/02/17 05:48:53;;;;;;;;;;;;;;;-0.97;84.79;97243.88;7398203;19;1155;-64
2024/02/17 05:51:24;;;;;;;;;;;;;;;-0.83;85.01;97246.69;7398496;19;1024;-67
2024/02/17 05:53:53;;;;;;;;;;;;;;;-0.21;86.05;97254.63;7398026;19;1056;-66
2024/02/17 05:56:21;;;;;;;;;;;;;;;0.67;82.38;97252.44;7398448;19;1005;-63
2024/02/17 05:58:50;;;;;;;;;;;;;;;1.58;77.13;97256.00;7398232;19;930;-68
2024/02/17 06:01:18;;;;;;;;;;;;;;;2.26;73.08;97260.84;7397758;19;1207;-67
2024/02/17 06:03:47;;;;;;;;;;;;;;;3.14;69.94;97267.28;7396900;19;1834;-68
2024/02/17 06:06:15;;;;;;;;;;;;;;;4.03;66.67;97277.78;7398441;19;1638;-63
2024/02/17 06:08:47;;;;;;;;;;;;;;;4.88;63.77;97278.50;7398016;19;958;-65
2024/02/17 06:11:15;;;;;;;;;;;;;;;5.70;62.18;97279.84;7397612;19;1120;-66
2024/02/17 06:13:45;;;;;;;;;;;;;;;6.50;57.12;97290.47;7397709;19;2002;-69
2024/02/17 06:16:14;;;;;;;;;;;;;;;7.36;54.90;97293.84;7397351;19;1096;-67
2024/02/17 06:21:25;;;;;;;;;;;;;;;9.14;51.06;97290.97;7397302;19;791;-65
2024/02/17 06:23:57;;;;;;;;;;;;;;;9.88;48.42;97305.97;7396241;19;1849;-67
2024/02/17 06:26:27;;;;;;;;;;;;;;;10.48;46.60;97301.06;7397164;19;1053;-69
2024/02/17 06:28:56;;;;;;;;;;;;;;;11.20;46.15;97304.41;7397469;19;997;-67
2024/02/17 06:31:24;;;;;;;;;;;;;;;11.96;44.54;97314.41;7397359;19;992;-72
2024/02/17 06:33:53;;;;;;;;;;;;;;;12.57;43.24;97304.59;7397188;19;1797;-72
2024/02/17 06:36:22;;;;;;;;;;;;;;;13.22;41.81;97312.00;7397281;19;1039;-67
2024/02/17 06:38:51;;;;;;;;;;;;;;;13.70;40.76;97315.50;7395738;19;1497;-70
2024/02/17 06:41:23;;;;;;;;;;;;;;;14.11;40.07;97306.03;7396806;19;970;-70
2024/02/17 06:43:51;;;;;;;;;;;;;;;14.70;38.75;97315.94;7395802;19;1848;-68
2024/02/17 06:46:20;;;;;;;;;;;;;;;15.09;37.92;97312.56;7396988;19;1017;-69
2024/02/17 06:48:49;;;;;;;;;;;;;;;15.59;37.28;97312.13;7396771;19;1811;-66
2024/02/17 06:51:19;;;;;;;;;;;;;;;16.04;35.98;97316.19;7400581;19;1381;-70
2024/02/17 06:53:47;;;;;;;;;;;;;;;16.32;35.52;97313.13;7404019;19;1103;-67
2024/02/17 06:56:16;;;;;;;;;;;;;;;16.86;35.33;97309.59;7404171;19;854;-64
2024/02/17 06:58:47;;;;;;;;;;;;;;;17.34;34.41;97308.91;7404372;19;962;-75
2024/02/17 07:01:16;;;;;;;;;;;;;;;17.86;34.18;97305.22;7403877;19;1056;-65
2024/02/17 07:03:45;;;;;;;;;;;;;;;18.39;33.39;97315.50;7403051;19;1916;-72
2024/02/17 07:06:18;;;;;;;;;;;;;;;18.85;33.16;97313.78;7404000;19;1798;-68
2024/02/17 07:08:48;;;;;;;;;;;;;;;19.37;32.25;97316.03;7403637;19;1060;-67
2024/02/17 07:11:18;;;;;;;;;;;;;;;19.62;31.66;97312.69;7403601;19;1124;-66
2024/02/17 07:13:49;;;;;;;;;;;;;;;19.70;31.44;97317.53;7403326;19;1157;-65
2024/02/17 07:16:19;;;;;;;;;;;;;;;20.26;30.87;97315.81;7403315;19;1104;-65
2024/02/17 07:18:49;;;;;;;;;;;;;;;20.47;30.78;97313.56;7403177;19;1049;-69
2024/02/17 07:21:18;;;;;;;;;;;;;;;20.47;30.85;97318.03;7403208;19;1107;-69
2024/02/17 07:23:46;;;;;;;;;;;;;;;20.35;30.63;97312.56;7402212;19;1849;-70
2024/02/17 07:26:16;;;;;;;;;;;;;;;20.08;30.74;97313.41;7403436;19;1906;-70
2024/02/17 07:28:47;;;;;;;;;;;;;;;19.87;31.28;97312.97;7402977;19;1061;-73
2024/02/17 07:31:20;;;;;;;;;;;;;;;19.64;32.00;97310.81;7402891;19;1111;-73
2024/02/17 07:33:51;;;;;;;;;;;;;;;19.87;31.72;97313.78;7402691;19;1090;-70
2024/02/17 07:36:25;;;;;;;;;;;;;;;20.35;30.92;97311.72;7402678;19;1111;-66
2024/02/17 07:38:54;;;;;;;;;;;;;;;20.55;30.94;97307.72;7401113;19;1123;-71
2024/02/17 07:41:23;;;;;;;;;;;;;;;20.01;31.28;97314.75;7402547;19;994;-73
2024/02/17 07:43:52;;;;;;;;;;;;;;;20.74;30.20;97304.66;7401601;19;1847;-67
2024/02/17 07:46:23;;;;;;;;;;;;;;;20.93;30.03;97312.31;7402732;19;1047;-68
2024/02/17 07:48:52;;;;;;;;;;;;;;;21.17;29.51;97308.91;7402226;19;1195;-71
2024/02/17 07:51:20;;;;;;;;;;;;;;;21.86;28.67;97311.28;7402605;19;1067;-70
2024/02/17 07:53:49;;;;;;;;;;;;;;;22.29;28.00;97308.16;7401951;19;1152;-69
2024/02/17 07:56:17;;;;;;;;;;;;;;;21.83;29.12;97305.22;7402390;19;1047;-69
2024/02/17 07:58:46;;;;;;;;;;;;;;;21.84;28.46;97308.72;7402186;19;1916;-68
2024/02/17 08:01:14;;;;;;;;;;;;;;;22.11;28.11;97312.16;7401033;19;1793;-71
2024/02/17 08:03:45;;;;;;;;;;;;;;;22.59;27.85;97319.34;7401699;19;1925;-69
2024/02/17 08:06:14;;;;;;;;;;;;;;;21.57;29.07;97307.06;7401591;19;1389;-73
2024/02/17 08:08:44;;;;;;;;;;;;;;;20.54;31.03;97304.22;7401970;19;1888;-70
2024/02/17 08:11:12;;;;;;;;;;;;;;;19.90;31.56;97310.94;7401653;19;1037;-68
2024/02/17 08:13:41;;;;;;;;;;;;;;;19.49;32.59;97303.81;7401477;19;1143;-69
2024/02/17 08:16:11;;;;;;;;;;;;;;;19.21;32.99;97309.03;7401568;19;1870;-66
2024/02/17 08:18:42;;;;;;;;;;;;;;;18.41;35.25;97303.06;7401275;19;1116;-67
2024/02/17 08:21:13;;;;;;;;;;;;;;;17.91;35.91;97300.50;7401792;19;984;-71
2024/02/17 08:23:44;;;;;;;;;;;;;;;17.43;36.44;97296.03;7400867;19;1847;-73
2024/02/17 08:26:16;;;;;;;;;;;;;;;17.31;37.00;97296.72;7401639;19;1016;-68
2024/02/17 08:28:44;;;;;;;;;;;;;;;16.75;37.60;97296.91;7401514;19;1004;-67
2024/02/17 08:31:13;;;;;;;;;;;;;;;16.38;38.53;97300.47;7400956;19;902;-70
2024/02/17 08:33:42;;;;;;;;;;;;;;;15.91;39.55;97297.41;7400835;19;1272;-67
2024/02/17 08:36:15;;;;;;;;;;;;;;;14.98;41.31;97298.97;7401162;19;1035;-68
2024/02/17 08:38:44;;;;;;;;;;;;;;;14.61;42.73;97293.50;7399438;19;1194;-68
2024/02/17 08:41:12;;;;;;;;;;;;;;;14.40;43.03;97294.34;7400681;19;1080;-66
2024/02/17 08:43:41;;;;;;;;;;;;;;;13.81;45.55;97303.72;7400214;19;1869;-65
2024/02/17 08:46:09;;;;;;;;;;;;;;;13.70;45.07;97301.50;7400586;19;819;-67
2024/02/17 08:48:38;;;;;;;;;;;;;;;13.20;46.62;97300.69;7400501;19;1800;-66
2024/02/17 08:51:07;;;;;;;;;;;;;;;13.01;46.62;97301.38;7400976;19;1626;-70
2024/02/17 08:53:38;;;;;;;;;;;;;;;13.05;46.66;97304.72;7400044;19;1073;-71
2024/02/17 08:56:07;;;;;;;;;;;;;;;13.14;46.84;97307.88;7399973;19;1060;-66
2024/02/17 08:58:37;;;;;;;;;;;;;;;12.71;47.71;97299.78;7399928;19;1072;-68
2024/02/17 09:01:06;;;;;;;;;;;;;;;12.67;48.80;97306.00;7399935;19;1044;-66
2024/02/17 09:03:36;;;;;;;;;;;;;;;12.47;49.24;97311.94;7399801;19;1045;-73
2024/02/17 09:06:04;;;;;;;;;;;;;;;12.46;48.89;97308.44;7397654;19;1858;-72
2024/02/17 09:08:33;;;;;;;;;;;;;;;12.46;48.44;97311.06;7399648;19;1033;-71
2024/02/17 09:11:04;;;;;;;;;;;;;;;12.66;48.71;97306.94;7399546;19;1380;-73
2024/02/17 09:13:33;;;;;;;;;;;;;;;12.72;47.71;97309.34;7397139;19;1041;-68
2024/02/17 09:16:02;;;;;;;;;;;;;;;12.70;48.36;97313.78;7399685;19;1920;-63
2024/02/17 09:18:30;;;;;;;;;;;;;;;12.47;49.56;97310.19;7399251;19;1044;-67
2024/02/17 09:20:59;;;;;;;;;;;;;;;12.28;50.24;97314.31;7399192;19;1119;-72
2024/02/17 09:23:28;;;;;;;;;;;;;;;12.17;50.36;97319.91;7399006;19;1119;-70
2024/02/17 09:25:56;;;;;;;;;;;;;;;11.86;50.76;97309.44;7397834;19;1854;-71
2024/02/17 09:28:27;;;;;;;;;;;;;;;11.96;51.06;97315.28;7398808;19;1064;-69
2024/02/17 09:30:56;;;;;;;;;;;;;;;11.86;51.11;97317.31;7399319;19;934;-68
2024/02/17 09:33:28;;;;;;;;;;;;;;;11.75;52.07;97314.16;7398688;19;1098;-63
2024/02/17 09:35:56;;;;;;;;;;;;;;;11.77;52.84;97314.13;7398600;19;1032;-73
2024/02/17 09:38:25;;;;;;;;;;;;;;;11.72;52.37;97317.75;7397558;19;1055;-71
2024/02/17 09:40:54;;;;;;;;;;;;;;;11.55;52.49;97314.75;7398498;19;1128;-71
2024/02/17 09:43:24;;;;;;;;;;;;;;;11.53;52.46;97313.94;7399004;19;1241;-66
2024/02/17 09:45:55;;;;;;;;;;;;;;;11.52;52.48;97313.09;7396913;19;1856;-67
2024/02/17 09:48:24;;;;;;;;;;;;;;;11.64;52.85;97311.84;7398351;19;1513;-69
2024/02/17 09:50:53;;;;;;;;;;;;;;;11.62;51.88;97313.69;7399945;19;1500;-70
2024/02/17 09:53:22;;;;;;;;;;;;;;;11.77;51.57;97314.13;7399055;19;1833;-65
2024/02/17 09:55:51;;;;;;;;;;;;;;;11.59;51.94;97306.75;7399903;19;1546;-69
2024/02/17 09:58:19;;;;;;;;;;;;;;;11.61;52.53;97312.81;7398242;19;2403;-69
2024/02/17 10:00:49;;;;;;;;;;;;;;;11.47;52.95;97305.34;7398366;19;1043;-66
2024/02/17 10:03:22;;;;;;;;;;;;;;;11.67;53.60;97292.56;7397704;19;1973;-70
2024/02/17 10:05:50;;;;;;;;;;;;;;;11.50;52.25;97302.66;7394528;19;1827;-70
2024/02/17 10:08:19;;;;;;;;;;;;;;;11.60;52.49;97294.53;7397266;19;1854;-67
2024/02/17 10:10:48;;;;;;;;;;;;;;;11.67;52.02;97293.44;7397538;19;1128;-65
2024/02/17 10:13:20;;;;;;;;;;;;;;;11.51;53.16;97290.41;7397405;19;1021;-63
2024/02/17 10:15:49;;;;;;;;;;;;;;;11.60;53.24;97290.16;7397449;19;1197;-70
2024/02/17 10:18:19;;;;;;;;;;;;;;;11.53;52.28;97282.50;7396882;19;1631;-67
2024/02/17 10:20:51;;;;;;;;;;;;;;;11.57;52.32;97282.38;7397412;19;1025;-66
2024/02/17 10:23:17;;;;;;;;;;;;;;;11.47;52.62;97286.19;7397204;19;1398;-67
2024/02/17 10:25:45;;;;;;;;;;;;;;;11.42;53.53;97291.56;7394916;19;2011;-73
2024/02/17 10:28:14;;;;;;;;;;;;;;;11.28;55.22;97288.44;7397613;19;1039;-71
2024/02/17 10:30:43;;;;;;;;;;;;;;;11.25;54.07;97284.16;7400569;19;1569;-72
2024/02/17 10:33:13;;;;;;;;;;;;;;;11.18;55.39;97278.25;7399283;19;1948;-72
2024/02/17 10:35:42;;;;;;;;;;;;;;;11.26;53.62;97280.66;7401036;19;1313;-67
2024/02/17 10:38:14;;;;;;;;;;;;;;;11.07;54.52;97293.41;7396147;19;1196;-68
2024/02/17 10:40:43;;;;;;;;;;;;;;;10.94;54.52;97285.91;7401866;19;1479;-72
2024/02/17 10:43:12;;;;;;;;;;;;;;;11.06;54.28;97284.72;7396977;19;1040;-69
2024/02/17 10:45:41;;;;;;;;;;;;;;;10.98;54.44;97282.28;7395450;19;1853;-71
2024/02/17 10:48:12;;;;;;;;;;;;;;;10.90;54.97;97283.41;7396542;19;1033;-69
2024/02/17 10:50:44;;;;;;;;;;;;;;;10.95;54.99;97274.53;7397062;19;1421;-68
2024/02/17 10:53:19;;;;;;;;;;;;;;;11.05;55.36;97279.50;7396856;19;1048;-71
2024/02/17 10:55:50;;;;;;;;;;;;;;;11.12;54.54;97279.31;7398828;19;1612;-65
2024/02/17 10:58:19;;;;;;;;;;;;;;;11.14;53.64;97281.00;7398201;19;1418;-64
2024/02/17 11:00:49;;;;;;;;;;;;;;;10.99;55.40;97276.16;7396161;19;1021;-66
2024/02/17 11:03:18;;;;;;;;;;;;;;;11.01;53.89;97277.88;7396081;19;1003;-67
2024/02/17 11:05:49;;;;;;;;;;;;;;;10.89;54.59;97266.84;7394925;19;1864;-69
2024/02/17 11:08:20;;;;;;;;;;;;;;;10.86;55.32;97266.91;7398986;19;1450;-67
2024/02/17 11:10:49;;;;;;;;;;;;;;;11.03;55.73;97276.94;7396446;19;971;-65
2024/02/17 11:13:22;;;;;;;;;;;;;;;11.07;56.14;97273.31;7395879;19;1005;-65
2024/02/17 11:16:03;;;;;;;;;;;;;;;11.01;54.71;97270.88;7395870;19;1202;-71
2024/02/17 11:18:34;;;;;;;;;;;;;;;11.10;54.93;97264.50;7395812;19;1021;-71
2024/02/17 11:21:03;;;;;;;;;;;;;;;11.08;55.05;97261.09;7396496;19;1966;-70
2024/02/17 11:23:39;;;;;;;;;;;;;;;10.91;54.68;97270.28;7395520;19;1000;-70
2024/02/17 11:26:09;;;;;;;;;;;;;;;10.82;56.17;97263.56;7393988;19;1846;-69
2024/02/17 11:28:38;;;;;;;;;;;;;;;10.98;55.70;97265.72;7395361;19;1032;-63
2024/02/17 11:31:08;;;;;;;;;;;;;;;10.98;53.31;97263.97;7395253;19;1104;-69
2024/02/17 11:33:37;;;;;;;;;;;;;;;10.84;55.68;97258.28;7395174;19;1013;-70
2024/02/17 11:36:08;;;;;;;;;;;;;;;10.86;55.67;97262.56;7395031;19;1633;-66
2024/02/17 11:38:40;;;;;;;;;;;;;;;10.72;55.80;97260.31;7405592;19;1491;-64
2024/02/17 11:41:09;;;;;;;;;;;;;;;10.80;55.89;97260.09;7402526;19;965;-64
2024/02/17 11:43:38;;;;;;;;;;;;;;;10.91;55.36;97265.06;7405239;19;1456;-70
2024/02/17 11:46:07;;;;;;;;;;;;;;;10.91;55.26;97266.81;7400544;19;1834;-64
2024/02/17 11:48:37;;;;;;;;;;;;;;;10.79;55.99;97255.78;7405214;19;1458;-63
2024/02/17 11:51:21;;;;;;;;;;;;;;;10.81;55.42;97253.97;7402255;19;1120;-62
2024/02/17 11:53:53;;;;;;;;;;;;;;;10.75;55.51;97262.00;7402070;19;1029;-64
2024/02/17 11:56:23;;;;;;;;;;;;;;;10.67;56.36;97263.94;7401967;19;1096;-74
2024/02/17 11:58:53;;;;;;;;;;;;;;;10.66;56.41;97264.84;7403594;19;1454;-70
2024/02/17 12:01:21;;;;;;;;;;;;;;;10.73;56.77;97259.44;7402056;19;1010;-66
2024/02/17 12:03:50;;;;;;;;;;;;;;;10.79;56.02;97262.75;7402103;19;1919;-69
2024/02/17 12:06:18;;;;;;;;;;;;;;;10.78;54.66;97268.91;7399966;19;1841;-65
2024/02/17 12:08:47;;;;;;;;;;;;;;;10.57;54.63;97264.19;7402757;19;1383;-64
2024/02/17 12:11:19;;;;;;;;;;;;;;;10.40;55.48;97261.13;7401513;19;1049;-65
2024/02/17 12:13:48;;;;;;;;;;;;;;;10.39;56.97;97260.28;7401380;19;1045;-65
2024/02/17 12:16:16;;;;;;;;;;;;;;;10.49;56.40;97255.69;7401849;19;1038;-70
2024/02/17 12:18:45;;;;;;;;;;;;;;;10.52;56.16;97265.22;7401927;19;1476;-68
2024/02/17 12:21:14;;;;;;;;;;;;;;;10.61;56.16;97267.59;7401253;19;1431;-68
2024/02/17 12:26:42;;;;;;;;;;;;;;;10.13;55.56;97258.31;7399295;19;1830;-64
2024/02/17 12:29:10;;;;;;;;;;;;;;;9.99;56.76;97257.75;7401092;19;1005;-66
2024/02/17 12:31:39;;;;;;;;;;;;;;;10.04;57.11;97259.41;7400990;19;1071;-65
2024/02/17 12:34:07;;;;;;;;;;;;;;;10.03;57.12;97265.53;7401146;19;1872;-65
2024/02/17 12:36:36;;;;;;;;;;;;;;;9.86;57.28;97261.56;7404225;19;1544;-67
2024/02/17 12:39:06;;;;;;;;;;;;;;;9.83;57.56;97259.03;7399042;19;1092;-62
2024/02/17 12:41:34;;;;;;;;;;;;;;;9.85;57.18;97257.25;7400545;19;1005;-70
2024/02/17 12:44:06;;;;;;;;;;;;;;;9.89;57.27;97258.00;7400393;19;1064;-64
2024/02/17 12:46:39;;;;;;;;;;;;;;;9.97;57.94;97250.88;7399161;19;1854;-68
2024/02/17 12:49:08;;;;;;;;;;;;;;;9.97;57.65;97250.88;7400550;19;1039;-69
2024/02/17 12:51:39;;;;;;;;;;;;;;;10.02;57.17;97245.53;7400602;19;1331;-68
2024/02/17 12:54:08;;;;;;;;;;;;;;;10.04;57.47;97257.66;7400099;19;1013;-65
2024/02/17 12:56:36;;;;;;;;;;;;;;;10.03;57.13;97260.31;7400694;19;1414;-69
2024/02/17 12:59:08;;;;;;;;;;;;;;;9.89;57.12;97258.00;7400273;19;1823;-65
2024/02/17 13:01:36;;;;;;;;;;;;;;;9.77;57.62;97264.38;7399824;19;1045;-67
2024/02/17 13:04:06;;;;;;;;;;;;;;;9.57;57.78;97263.94;7400182;19;1043;-68
2024/02/17 13:06:37;;;;;;;;;;;;;;;9.53;58.85;97266.66;7398329;19;1807;-66
2024/02/17 13:09:06;;;;;;;;;;;;;;;9.48;58.24;97270.25;7400494;19;939;-70
2024/02/17 13:11:35;;;;;;;;;;;;;;;9.43;59.52;97276.47;7403563;19;1530;-66
2024/02/17 13:14:03;;;;;;;;;;;;;;;9.33;59.16;97278.41;7399457;19;1112;-69